• Join FlightAware (Why Join?)
  • Login
  • US Flag 
01:20AM EST


 

Airport Tracker/Info


-or-


 

Live Flight TrackerFlight Track Log ✈ GGN7280 ✈ 02-Sep-2013 ✈ CYYZ - KALB

Flight Track Log - Related Links

Times and Time Zones

All times are in EDT time to prevent confusion due to time zone crossing. See the GGN7280 flight status page for this flight to view local times or setup timezone preferences in your user account.

Time Position Orientation Groundspeed Altitude Reporting Facility
EDT Latitude Longitude Course Direction KTS MPH feet Rate Location/Type
09:29AM 43.6333 -79.6167 133° Southeast 150 173 1,900  Level Toronto Center
09:30AM 43.6000 -79.5667 133° Southeast 210 242 3,500 1,620 Climbing Toronto Center
09:31AM 43.5833 -79.5000 109° East 210 242 5,200 1,680 Climbing Toronto Center
09:32AM 43.5667 -79.4000 103° East 220 253 6,900 1,440 Climbing Toronto Center
09:33AM 43.5500 -79.3167 105° East 230 265 8,100 1,200 Climbing Toronto Center
09:34AM 43.5500 -79.2167 90° East 250 288 9,400 1,080 Climbing Toronto Center
09:35AM 43.5333 -79.1333 105° East 260 299 10,300 720 Climbing Toronto Center
09:36AM 43.5167 -79.0167 101° East 270 311 10,900 840 Climbing Toronto Center
09:37AM 43.5167 -78.9167 90° East 270 311 12,000 960 Climbing Toronto Center
09:38AM 43.5000 -78.8000 101° East 280 322 12,900 480 Climbing Toronto Center
09:39AM 43.4833 -78.6833 101° East 290 334 13,000 600 Climbing Toronto Center
09:40AM 43.4667 -78.6000 105° East 290 334 14,100 1,140 Climbing Toronto Center
09:41AM 43.4333 -78.4833 111° Southeast 270 311 15,300 1,020 Climbing Toronto Center
09:42AM 43.4333 -78.4000 90° East 270 311 16,200 960 Climbing Toronto Center
09:43AM 43.4167 -78.3000 103° East 270 311 17,300 1,140 Climbing Toronto Center
09:44AM 43.4000 -78.1833 101° East 260 299 18,500 1,020 Climbing Toronto Center
09:45AM 43.4000 -78.1000 90° East 270 311 19,400 780 Climbing Toronto Center
09:46AM 43.3833 -77.9833 101° East 270 311 20,100 720 Climbing Toronto Center
09:47AM 43.3667 -77.8833 103° East 270 311 20,900 420 Climbing Toronto Center
09:48AM 43.3669 -77.8075 90° East 278 320 21,000  Climbing Cleveland Center
09:49AM 43.3539 -77.6994 99° East 278 320 21,000  Level Cleveland Center
09:50AM 43.3386 -77.5919 101° East 278 320 21,000  Level Cleveland Center
09:51AM 43.3211 -77.4842 103° East 278 320 21,000  Level Cleveland Center
09:52AM 43.3056 -77.3736 101° East 278 320 21,000  Level Cleveland Center
09:53AM 43.2900 -77.2633 101° East 289 333 21,000  Level Cleveland Center
09:54AM 43.2739 -77.1414 100° East 289 333 21,000  Level Cleveland Center
09:55AM 43.2583 -77.0339 101° East 295 339 21,000  Level Cleveland Center
09:57AM 43.2319 -76.8578 102° East 292 336 21,000 -60 Level Boston Center
09:58AM 43.2167 -76.7333 100° East 280 322 20,900 -120 Descending Toronto Center
09:59AM 43.1833 -76.6167 111° Southeast 300 345 20,900  Level Toronto Center
10:00AM 43.1667 -76.5167 103° East 300 345 20,900 -600 Level Toronto Center
10:01AM 43.1500 -76.4167 103° East 300 345 19,700 -960 Descending Toronto Center
10:02AM 43.1500 -76.3000 90° East 300 345 19,000 -360 Descending Toronto Center
10:03AM 43.1500 -76.1833 90° East 290 334 19,000 -60 Level Toronto Center
10:04AM 43.1333 -76.0667 101° East 270 311 18,900  Descending Toronto Center
10:05AM 43.1333 -75.9833 90° East 260 299 19,000  Climbing Toronto Center
10:06AM 43.1167 -75.8833 103° East 260 299 18,900 -480 Descending Toronto Center
10:07AM 43.1289 -75.7747 81° East 258 297 17,900 -720 Descending Boston Center
10:08AM 43.1192 -75.6831 98° East 258 297 17,200 -720 Descending Boston Center
10:09AM 43.1133 -75.5889 95° East 258 297 16,500 -720 Descending Boston Center
10:10AM 43.1078 -75.4947 95° East 253 291 15,800 -780 Descending Boston Center
10:11AM 43.0997 -75.4033 97° East 253 291 15,000 -1,020 Descending Boston Center
10:12AM 43.0939 -75.3064 95° East 253 291 13,800 -1,140 Descending Boston Center
10:13AM 43.0861 -75.1978 96° East 264 304 12,800 -900 Descending Boston Center
10:14AM 43.0803 -75.0925 94° East 277 319 12,000 -720 Descending Boston Center
10:15AM 43.0700 -74.9925 98° East 283 326 11,400 -540 Descending Boston Center
10:16AM 43.0642 -74.8842 94° East 288 331 11,000 -300 Descending Boston Center
10:17AM 43.0572 -74.8100 97° East 282 325 11,000  Level Boston Center
10:18AM 43.0511 -74.7075 95° East 274 315 11,000  Level Boston Center
10:19AM 43.0383 -74.6019 99° East 277 319 11,000  Level Boston Center
10:19AM 43.0278 -74.5050 98° East 279 321 11,000 -180 Level Boston Center
10:20AM 43.0203 -74.4564 102° East 275 316 10,800 -480 Descending Boston Center
10:21AM 43.0131 -74.3994 100° East 283 326 10,500 -720 Descending Boston Center
10:22AM 42.9958 -74.2939 103° East 293 337 9,700 -1,140 Descending Boston Center
10:23AM 42.9619 -74.1964 115° Southeast 289 333 8,300 -1,440 Descending Boston Center
10:24AM 42.9239 -74.0931 117° Southeast 280 322 6,800 -1,440 Descending Boston Center
10:25AM 42.8919 -74.0017 115° Southeast 265 305 5,500 -1,380 Descending Boston Center
10:26AM 42.8519 -73.8817 114° Southeast 274 315 3,500 -1,740 Descending Boston Center
10:27AM 42.8336 -73.8358 119° Southeast 201 231 2,000 -1,560 Descending Boston Center
10:28AM 42.7922 -73.8067 153° Southeast 138 159 1,000 6,960 Descending Boston Center
10:29AM 42.7425 -73.6161 110° East 262 302 19,000 7,500 Climbing Boston Center
10:30AM 42.7058 -73.5306 120° Southeast 262 302 19,000  Level Boston Center
10:32AM 42.7214 -73.6818 278° West  Level FlightAware Approximate